Time;durP1;ratioP1;P1;durP2;ratioP2;P2;SDS_P1;SDS_P2;PMS_P1;PMS_P2;Temp;Humidity;BMP_temperature;BMP_pressure;BME280_temperature;BME280_humidity;BME280_pressure;Samples;Min_cycle;Max_cycle;Signal;HPM_P1;HPM_P2
2023/10/13 00:02:03;;;;;;;7.25;5.18;;;19.60;57.50;;;21.22;45.10;97690.28;5034106;28;20049;-41
2023/10/13 00:04:35;;;;;;;6.82;4.05;;;19.50;57.50;;;21.21;45.46;97702.19;5034053;28;20524;-40
2023/10/13 00:07:04;;;;;;;8.15;5.25;;;19.50;57.30;;;21.18;45.41;97702.63;5034016;28;20045;-40
2023/10/13 00:09:32;;;;;;;9.50;4.78;;;19.50;57.60;;;21.14;45.26;97690.59;5033611;28;20045;-40
2023/10/13 00:12:00;;;;;;;4.80;4.00;;;19.50;58.40;;;21.11;44.86;97696.47;5033851;28;20049;-41
2023/10/13 00:14:33;;;;;;;11.68;5.20;;;19.40;56.70;;;21.10;44.58;97688.59;5033979;28;20045;-41
2023/10/13 00:17:04;;;;;;;5.35;3.90;;;19.40;56.30;;;21.05;44.43;97683.84;5033886;28;20041;-41
2023/10/13 00:19:37;;;;;;;7.18;5.20;;;19.40;55.90;;;21.02;43.89;97677.00;5032461;28;20417;-42
2023/10/13 00:22:09;;;;;;;;;;;19.40;55.00;;;21.02;44.39;97684.31;5033130;28;20045;-41
2023/10/13 00:24:50;;;;;;;10.18;4.60;;;19.40;54.20;;;21.02;44.22;97685.13;5033798;28;19921;-40
2023/10/13 00:27:41;;;;;;;6.50;4.53;;;19.30;55.10;;;20.97;44.00;97681.44;5025656;28;20045;-39
2023/10/13 00:30:20;;;;;;;6.32;3.60;;;19.30;54.80;;;20.94;43.82;97680.03;5024724;28;20524;-41
2023/10/13 00:32:56;;;;;;;7.07;4.45;;;19.20;54.40;;;20.92;43.36;97673.16;5032567;28;20049;-42
2023/10/13 00:35:37;;;;;;;6.25;3.70;;;19.20;53.70;;;20.90;43.31;97672.56;5031631;28;20074;-41
2023/10/13 00:38:16;;;;;;;8.00;3.95;;;19.20;53.70;;;20.87;43.26;97678.47;5032817;28;20070;-40
2023/10/13 00:40:51;;;;;;;6.97;4.43;;;19.20;53.60;;;20.81;43.29;97670.19;5033362;28;20053;-42
2023/10/13 00:45:57;;;;;;;7.22;3.85;;;19.10;54.00;;;20.78;43.51;97672.50;5033798;28;20037;-43
2023/10/13 00:48:34;;;;;;;6.95;4.18;;;19.20;53.10;;;20.80;43.17;97676.66;5031715;28;20045;-40
2023/10/13 00:51:06;;;;;;;8.75;5.20;;;19.20;52.80;;;20.78;42.98;97667.94;5015639;28;20064;-41
2023/10/13 00:53:44;;;;;;;;;;;19.20;52.70;;;20.78;42.90;97673.34;5033692;28;20037;-42
2023/10/13 00:56:27;;;;;;;5.85;4.35;;;19.20;51.40;;;20.84;42.60;97672.44;5031721;28;19920;-41
2023/10/13 00:58:57;;;;;;;6.30;4.45;;;19.20;52.60;;;20.84;42.85;97677.03;5017301;28;20057;-42
2023/10/13 01:01:29;;;;;;;7.85;4.00;;;19.20;52.50;;;20.82;42.67;97679.97;5031504;28;20053;-41
2023/10/13 01:04:01;;;;;;;5.15;3.53;;;19.20;52.70;;;20.82;42.61;97679.97;5032943;28;20045;-42
2023/10/13 01:06:31;;;;;;;7.55;4.22;;;19.30;52.40;;;20.81;42.63;97672.88;5033092;28;20048;-41
2023/10/13 01:09:17;;;;;;;7.47;3.53;;;19.30;52.20;;;20.83;42.55;97673.47;5032231;28;20049;-42
2023/10/13 01:11:52;;;;;;;10.02;4.38;;;19.30;51.50;;;20.83;42.47;97673.47;5031209;28;20065;-42
2023/10/13 01:14:23;;;;;;;5.97;3.60;;;19.30;51.20;;;20.82;41.91;97671.84;5031627;28;20045;-43
2023/10/13 01:16:55;;;;;;;7.65;4.35;;;19.40;51.20;;;20.87;41.88;97668.44;5031232;28;20064;-41
2023/10/13 01:19:27;;;;;;;8.88;4.13;;;19.40;51.00;;;20.90;42.02;97665.31;5031816;28;20049;-42
2023/10/13 01:22:03;;;;;;;6.78;3.85;;;19.50;50.50;;;20.91;41.93;97664.25;5032624;28;20045;-41
2023/10/13 01:24:34;;;;;;;5.47;3.97;;;19.50;50.60;;;20.95;41.39;97654.59;5031697;28;20057;-44
2023/10/13 01:29:49;;;;;;;12.93;3.97;;;19.60;49.70;;;20.97;41.29;97646.28;5031412;28;20053;-42
2023/10/13 01:32:19;;;;;;;5.97;3.72;;;19.70;49.80;;;20.97;41.00;97640.84;5031086;28;20056;-42
2023/10/13 01:34:48;;;;;;;7.13;3.88;;;19.70;49.50;;;20.98;41.19;97635.22;5030992;28;20057;-42
2023/10/13 01:37:19;;;;;;;7.18;5.10;;;19.70;49.50;;;21.02;41.14;97635.59;5024866;28;20045;-41
2023/10/13 01:39:47;;;;;;;7.97;4.00;;;19.70;49.60;;;21.04;41.08;97630.78;5031022;28;20416;-43
2023/10/13 01:42:23;;;;;;;9.30;3.83;;;19.70;49.70;;;21.07;41.44;97637.59;5024590;28;20049;-55
2023/10/13 01:44:51;;;;;;;8.95;4.93;;;19.70;49.50;;;21.07;40.70;97632.19;5032488;28;20053;-53
2023/10/13 01:47:22;;;;;;;9.63;3.75;;;19.60;49.50;;;21.07;41.21;97626.78;5031852;28;20049;-52
2023/10/13 01:49:50;;;;;;;6.80;4.40;;;19.60;49.70;;;21.03;41.20;97637.22;5032018;28;20053;-53
2023/10/13 01:52:19;;;;;;;9.25;3.70;;;19.50;49.70;;;21.02;40.99;97628.28;5015187;28;20053;-55
2023/10/13 01:54:49;;;;;;;5.80;4.10;;;19.60;49.70;;;21.00;40.61;97626.88;5030395;28;20049;-54
2023/10/13 01:57:17;;;;;;;10.48;4.15;;;19.50;49.70;;;20.95;40.84;97630.25;5014520;28;20081;-52
2023/10/13 01:59:48;;;;;;;9.65;6.07;;;19.40;49.70;;;20.94;40.97;97623.22;5030606;28;20050;-53
2023/10/13 02:02:29;;;;;;;4.97;4.25;;;19.40;49.80;;;20.92;40.85;97635.28;5030909;28;20048;-54
2023/10/13 02:05:00;;;;;;;9.00;3.95;;;19.30;50.10;;;20.87;41.02;97627.88;5030580;28;20420;-55
2023/10/13 02:07:34;;;;;;;7.40;4.25;;;19.20;50.40;;;20.82;40.93;97631.25;5030138;28;20045;-56
2023/10/13 02:10:05;;;;;;;6.93;3.88;;;19.10;50.70;;;20.79;40.97;97620.06;5032020;28;20045;-54
2023/10/13 02:12:37;;;;;;;8.90;4.28;;;19.10;50.90;;;20.72;41.23;97622.03;5030647;28;20053;-55
2023/10/13 02:15:05;;;;;;;7.20;4.47;;;19.00;51.10;;;20.63;41.66;97618.81;5031536;28;20053;-51
2023/10/13 02:17:41;;;;;;;8.82;3.55;;;18.90;51.30;;;20.55;41.43;97616.34;5029945;28;20056;-52
2023/10/13 02:20:14;;;;;;;5.65;3.95;;;18.80;51.10;;;20.50;41.09;97610.81;5029693;28;20049;-53
2023/10/13 02:22:51;;;;;;;6.68;4.53;;;18.80;50.70;;;20.44;41.14;97604.44;5030383;28;20052;-51
2023/10/13 02:28:28;;;;;;;8.00;3.65;;;18.70;50.80;;;20.35;41.05;97598.47;5027916;28;20575;-55
2023/10/13 02:30:57;;;;;;;6.78;3.47;;;18.70;50.60;;;20.33;41.29;97597.06;5031384;28;20532;-56
2023/10/13 02:33:30;;;;;;;5.75;4.15;;;18.70;50.80;;;20.32;41.35;97603.53;5031531;28;20527;-55
2023/10/13 02:36:04;;;;;;;5.95;4.00;;;18.70;50.60;;;20.30;41.01;97594.81;5031170;28;20524;-54
2023/10/13 02:38:34;;;;;;;6.00;3.65;;;18.70;50.20;;;20.27;40.93;97590.69;5029904;28;20041;-53
2023/10/13 02:41:05;;;;;;;6.65;3.70;;;18.70;50.10;;;20.26;41.24;97586.34;5029921;28;20049;-55
2023/10/13 02:43:35;;;;;;;7.05;3.85;;;18.70;50.20;;;20.25;40.98;97590.06;5030230;28;20041;-59
2023/10/13 02:46:04;;;;;;;6.47;3.70;;;18.70;50.20;;;20.29;41.15;97587.75;5029927;28;20041;-56
2023/10/13 02:48:41;;;;;;;5.93;3.58;;;18.80;50.00;;;20.29;40.95;97587.75;5031159;28;20469;-55
2023/10/13 02:51:16;;;;;;;8.25;3.38;;;18.80;49.80;;;20.31;40.76;97585.66;5030785;28;20525;-55
2023/10/13 02:53:48;;;;;;;5.05;3.47;;;18.80;49.80;;;20.31;40.70;97580.25;5029641;28;20049;-52
2023/10/13 02:56:22;;;;;;;6.05;3.30;;;18.80;49.70;;;20.31;40.70;97578.34;5029134;28;20049;-54
2023/10/13 02:58:53;;;;;;;7.35;4.22;;;18.80;49.70;;;20.29;40.97;97574.25;5045513;28;20053;-55
2023/10/13 03:01:22;;;;;;;6.32;3.67;;;18.70;49.80;;;20.32;40.68;97573.81;5021869;28;20052;-56
2023/10/13 03:03:54;;;;;;;5.72;3.90;;;18.80;49.40;;;20.30;40.86;97574.03;5029499;28;20041;-56
2023/10/13 03:06:35;;;;;;;8.73;3.88;;;18.80;49.50;;;20.28;40.51;97570.72;5021126;28;20425;-54
2023/10/13 03:09:18;;;;;;;8.38;3.85;;;18.70;49.70;;;20.26;40.50;97570.94;5029023;28;20052;-51
2023/10/13 03:11:50;;;;;;;6.30;3.47;;;18.70;49.70;;;20.24;40.66;97567.63;5030653;28;20041;-53
2023/10/13 03:14:30;;;;;;;7.75;4.03;;;18.70;49.60;;;20.22;40.81;97569.75;5030689;28;20045;-54
2023/10/13 03:17:04;;;;;;;6.90;3.92;;;18.70;49.40;;;20.23;40.97;97563.25;5031211;28;20468;-56
2023/10/13 03:19:33;;;;;;;7.57;4.28;;;18.70;49.30;;;20.23;40.85;97565.16;5012765;28;20048;-56
2023/10/13 03:22:09;;;;;;;6.47;4.45;;;18.80;49.80;;;20.23;40.81;97557.88;5029154;28;20492;-54
2023/10/13 03:24:45;;;;;;;10.27;4.22;;;18.80;49.00;;;20.24;40.70;97556.00;5029699;28;20048;-54
2023/10/13 03:27:17;;;;;;;6.88;3.33;;;18.90;48.90;;;20.25;40.42;97558.47;5030264;28;20041;-55
2023/10/13 03:29:46;;;;;;;6.25;3.40;;;18.80;48.80;;;20.25;40.42;97553.06;5031138;28;20053;-53
2023/10/13 03:32:15;;;;;;;8.43;3.95;;;18.90;48.80;;;20.29;40.53;97552.63;5030458;28;20045;-56
2023/10/13 03:35:10;;;;;;;5.00;3.58;;;18.90;48.90;;;20.31;40.65;97555.91;5030891;28;20116;-56
2023/10/13 03:37:40;;;;;;;;;;;18.90;48.80;;;20.34;40.37;97561.69;5024475;28;20049;-56
2023/10/13 03:45:47;;;;;;;6.97;3.53;;;18.90;48.90;;;20.33;40.55;97554.63;5024481;28;20037;-53
2023/10/13 03:51:10;;;;;;;6.35;3.55;;;18.70;49.30;;;20.24;40.59;97554.13;5029340;28;20052;-56
2023/10/13 03:53:52;;;;;;;8.93;5.10;;;18.60;49.50;;;20.21;40.42;97551.84;5024288;28;20044;-54
2023/10/13 03:56:26;;;;;;;6.43;4.15;;;18.60;49.80;;;20.15;40.75;97550.06;5030140;28;20045;-52
2023/10/13 03:59:06;;;;;;;5.70;4.50;;;18.40;50.10;;;20.06;40.88;97551.41;5028425;28;20501;-54
2023/10/13 04:01:44;;;;;;;9.68;4.50;;;18.30;50.50;;;19.97;41.02;97553.59;5029304;28;20508;-53
2023/10/13 04:04:15;;;;;;;6.57;4.13;;;18.10;50.90;;;19.88;41.06;97554.09;5030251;28;20623;-55
2023/10/13 04:17:26;;;;;;;7.55;4.15;;;18.00;51.30;;;19.71;41.49;97549.22;5029479;28;20477;-53
2023/10/13 04:28:33;;;;;;;6.40;3.90;;;18.00;50.90;;;19.67;41.29;97537.22;5032184;28;20049;-54
2023/10/13 04:31:24;;;;;;;7.10;3.75;;;17.90;51.00;;;19.67;41.52;97538.03;5033933;28;20050;-55
2023/10/13 04:33:56;;;;;;;4.68;3.28;;;18.00;51.00;;;19.70;41.19;97534.06;5027778;28;20049;-56
2023/10/13 04:49:49;;;;;;;6.80;4.13;;;18.20;50.20;;;19.74;41.13;97521.81;5033214;28;20041;-52
2023/10/13 04:55:17;;;;;;;6.82;3.95;;;18.20;50.10;;;19.75;41.04;97515.34;5033321;28;20053;-55
2023/10/13 05:03:30;;;;;;;9.40;3.50;;;18.20;49.80;;;19.77;41.02;97512.44;5032783;28;20393;-55
2023/10/13 05:06:10;;;;;;;6.22;3.40;;;18.20;49.80;;;19.76;40.93;97508.91;5031922;28;20029;-52
2023/10/13 06:28:49;;;;;;;7.88;3.92;;;18.90;47.00;;;20.21;39.54;97510.50;5024317;28;20049;-58
2023/10/13 06:31:23;;;;;;;5.20;3.45;;;18.90;47.00;;;20.23;39.49;97511.91;5031884;28;20489;-54
2023/10/13 06:33:51;;;;;;;11.88;3.83;;;18.90;47.00;;;20.28;39.50;97505.84;5032003;28;20045;-56
2023/10/13 06:36:19;;;;;;;9.35;3.78;;;18.90;47.00;;;20.30;39.07;97500.19;5030856;28;20041;-56
2023/10/13 06:38:55;;;;;;;5.85;4.10;;;19.00;46.80;;;20.32;39.18;97501.63;5031026;28;20033;-54
2023/10/13 06:41:32;;;;;;;10.05;3.78;;;19.00;46.70;;;20.35;39.47;97498.47;5025584;28;20042;-56
2023/10/13 06:44:14;;;;;;;7.45;3.50;;;19.00;46.70;;;20.34;39.34;97499.53;5030487;28;20041;-57
2023/10/13 06:46:43;;;;;;;6.18;3.42;;;19.00;46.80;;;20.36;39.27;97496.59;5030780;28;20041;-55
2023/10/13 06:49:13;;;;;;;7.78;3.42;;;19.00;46.80;;;20.38;39.04;97497.19;5030613;28;20045;-55
2023/10/13 06:51:41;;;;;;;8.90;4.03;;;19.10;46.30;;;20.39;39.07;97498.84;5030710;28;20044;-56
2023/10/13 06:54:18;;;;;;;6.20;3.83;;;19.10;46.50;;;20.41;38.98;97505.69;5024202;28;20052;-56
2023/10/13 06:56:51;;;;;;;7.75;3.90;;;19.10;46.40;;;20.41;38.94;97505.69;5030772;28;20038;-56
2023/10/13 06:59:19;;;;;;;7.70;3.78;;;19.20;46.30;;;20.41;38.78;97502.97;5030207;28;20519;-55
2023/10/13 07:01:48;;;;;;;6.60;3.78;;;19.10;46.20;;;20.44;38.90;97504.41;5030700;28;20045;-55
2023/10/13 07:04:16;;;;;;;6.43;3.60;;;19.20;46.10;;;20.48;39.01;97515.59;5029671;28;20420;-56
2023/10/13 07:06:54;;;;;;;6.95;3.30;;;19.20;45.90;;;20.51;38.59;97504.28;5022736;28;20041;-52
2023/10/13 07:09:39;;;;;;;5.25;3.72;;;19.30;46.00;;;20.48;38.85;97502.88;5029106;28;20046;-52
2023/10/13 07:12:16;;;;;;;6.97;4.38;;;19.30;45.70;;;20.54;39.03;97501.16;5030564;28;20092;-52
2023/10/13 07:14:51;;;;;;;7.20;3.47;;;19.30;46.00;;;20.54;38.63;97506.56;5029324;28;20060;-50
2023/10/13 07:17:25;;;;;;;6.40;3.25;;;19.30;45.70;;;20.57;38.80;97503.38;5030448;28;20104;-54
2023/10/13 07:20:01;;;;;;;5.90;3.65;;;19.30;45.60;;;20.60;38.58;97502.97;5029864;28;20048;-51
2023/10/13 07:22:29;;;;;;;6.25;3.78;;;19.40;45.80;;;20.63;38.66;97503.34;5030593;28;20062;-54
2023/10/13 07:24:58;;;;;;;7.05;4.40;;;19.40;45.60;;;20.68;38.82;97507.22;5030669;28;20037;-53
2023/10/13 07:27:25;;;;;;;8.35;3.88;;;19.40;45.80;;;20.69;38.58;97501.59;5030332;28;20056;-50
2023/10/13 07:29:57;;;;;;;7.30;3.88;;;19.50;45.70;;;20.71;38.82;97504.06;5030680;28;20124;-54
2023/10/13 07:32:26;;;;;;;9.95;3.65;;;19.60;45.70;;;20.72;38.70;97500.31;5030167;28;20045;-51
2023/10/13 07:34:55;;;;;;;8.00;3.63;;;19.50;45.40;;;20.74;38.34;97500.91;5030602;28;20520;-53
2023/10/13 07:37:29;;;;;;;7.75;3.83;;;19.50;45.50;;;20.74;38.79;97501.72;5030093;28;20053;-53
2023/10/13 07:39:58;;;;;;;5.57;3.25;;;19.50;45.70;;;20.75;38.87;97492.56;5030679;28;20045;-56
2023/10/13 07:42:31;;;;;;;5.45;3.40;;;19.60;45.50;;;20.76;38.52;97485.25;5029860;28;20509;-56
2023/10/13 07:44:59;;;;;;;10.15;3.90;;;19.50;45.60;;;20.78;38.77;97486.69;5030676;28;20038;-55
2023/10/13 07:47:27;;;;;;;6.15;3.60;;;19.50;45.60;;;20.81;38.91;97485.41;5029457;28;20048;-56
2023/10/13 07:49:56;;;;;;;9.35;4.38;;;19.60;45.70;;;20.84;38.70;97484.94;5029615;28;20037;-55
2023/10/13 07:52:26;;;;;;;8.18;3.30;;;19.60;45.60;;;20.88;38.55;97490.69;5030688;28;20053;-55
2023/10/13 07:55:19;;;;;;;7.70;3.35;;;19.60;45.40;;;20.92;38.24;97479.19;5034211;28;20053;-54
2023/10/13 07:57:53;;;;;;;8.43;3.58;;;19.70;45.40;;;20.95;38.37;97481.44;5034032;28;20041;-54
2023/10/13 08:06:04;;;;;;;9.15;3.33;;;19.80;44.60;;;21.09;38.05;97479.34;5034191;28;19928;-57
2023/10/13 08:08:39;;;;;;;8.18;3.90;;;19.80;45.00;;;21.12;38.06;97469.94;5033785;28;20048;-55
2023/10/13 08:13:59;;;;;;;7.45;3.45;;;19.90;44.20;;;21.14;38.04;97468.66;5025215;28;20034;-55
2023/10/13 08:16:59;;;;;;;7.10;3.50;;;20.00;44.30;;;21.20;38.02;97469.59;5033654;28;20045;-57
2023/10/13 08:19:39;;;;;;;7.13;4.05;;;20.00;44.50;;;21.27;37.60;97464.06;5031563;28;20524;-53
2023/10/13 08:27:35;;;;;;;9.05;3.65;;;20.30;44.30;;;21.46;37.92;97457.53;5033492;28;20049;-57
2023/10/13 08:32:57;;;;;;;6.25;3.33;;;20.40;44.30;;;21.59;37.87;97451.03;5033610;28;20045;-54
2023/10/13 08:35:35;;;;;;;7.70;3.70;;;20.40;43.90;;;21.63;37.24;97453.06;5033609;28;20048;-55
2023/10/13 08:38:04;;;;;;;6.85;4.13;;;20.50;43.70;;;21.68;36.89;97449.63;5032281;28;20046;-53
2023/10/13 08:41:28;;;;;;;7.03;3.78;;;20.60;42.40;;;21.73;36.62;97465.16;5033659;28;20052;-54
2023/10/13 08:43:50;;;;;;;6.22;3.70;;;20.70;42.50;;;21.79;36.44;97458.78;5035504;28;20053;-53
2023/10/13 08:46:28;;;;;;;8.10;3.90;;;20.70;42.30;;;21.84;36.30;97456.19;5032321;28;20056;-51
2023/10/13 08:49:17;;;;;;;9.65;4.18;;;20.80;41.70;;;21.91;36.53;97451.47;5025373;28;20045;-55
2023/10/13 08:51:49;;;;;;;6.60;3.30;;;20.90;42.10;;;21.99;36.58;97447.56;5033474;28;20033;-53
2023/10/13 08:54:39;;;;;;;6.70;4.25;;;20.90;41.70;;;22.05;36.35;97449.31;5032446;28;20052;-42
2023/10/13 08:57:19;;;;;;;7.28;4.10;;;21.00;41.40;;;22.12;36.02;97450.00;5026488;28;20042;-40
2023/10/13 08:59:53;;;;;;;9.10;3.63;;;21.10;41.50;;;22.20;35.83;97438.78;5032086;28;20049;-42
2023/10/13 09:02:59;;;;;;;9.13;4.13;;;21.20;41.50;;;22.25;35.79;97440.78;5033210;28;20436;-42
2023/10/13 09:05:41;;;;;;;5.15;3.45;;;21.30;41.20;;;22.33;35.74;97445.84;5026455;28;20056;-40
2023/10/13 09:08:08;;;;;;;6.78;3.10;;;21.30;40.70;;;22.32;35.49;97436.06;5024420;28;20520;-42
2023/10/13 09:11:10;;;;;;;7.00;3.60;;;21.40;40.80;;;22.41;35.74;97442.75;5032877;28;20041;-41
2023/10/13 09:13:43;;;;;;;8.20;3.60;;;21.40;41.00;;;22.47;35.25;97437.41;5032607;28;20051;-40
2023/10/13 09:17:07;;;;;;;7.10;3.60;;;21.50;40.20;;;22.57;35.63;97435.72;5031687;28;20044;-41
2023/10/13 09:19:05;;;;;;;7.20;3.67;;;21.50;41.10;;;22.66;35.47;97427.19;5031482;28;20501;-54
2023/10/13 09:24:21;;;;;;;7.25;4.10;;;21.70;40.00;;;22.81;35.34;97427.44;5031664;28;20041;-51
2023/10/13 09:26:55;;;;;;;6.28;3.40;;;21.80;40.50;;;22.91;35.16;97427.63;5031178;28;20048;-53
2023/10/13 09:29:24;;;;;;;7.05;3.78;;;21.90;40.60;;;23.01;35.17;97432.38;5032543;28;20060;-54
2023/10/13 09:32:03;;;;;;;11.80;4.22;;;21.90;40.40;;;23.08;34.87;97421.41;5032319;28;20042;-55
2023/10/13 09:34:33;;;;;;;5.68;2.95;;;22.00;39.70;;;23.16;34.83;97426.41;5032508;28;20045;-54
2023/10/13 09:37:06;;;;;;;8.55;3.95;;;22.10;39.80;;;23.24;34.53;97408.88;5025092;28;20045;-54
2023/10/13 09:39:40;;;;;;;4.55;3.10;;;22.30;39.40;;;23.30;33.78;97416.88;5032251;28;20528;-54
2023/10/13 09:42:10;;;;;;;8.23;3.65;;;22.30;38.40;;;23.34;33.81;97409.88;5031527;28;20046;-41
2023/10/13 09:44:40;;;;;;;6.47;4.18;;;22.30;38.40;;;23.43;33.82;97415.69;5032554;28;20101;-41
2023/10/13 09:47:23;;;;;;;5.60;3.38;;;22.40;37.90;;;23.49;33.63;97416.59;5031094;28;20041;-47
2023/10/13 09:50:03;;;;;;;8.85;3.30;;;22.40;38.00;;;23.57;33.41;97416.16;5032218;28;20052;-43
2023/10/13 09:52:32;;;;;;;6.72;3.58;;;22.60;37.60;;;23.65;33.23;97412.19;5031206;28;20065;-45
2023/10/13 09:55:29;;;;;;;8.45;3.60;;;22.60;38.00;;;23.71;33.44;97427.47;5030908;28;20042;-44
2023/10/13 09:58:10;;;;;;;8.30;3.67;;;22.70;36.90;;;23.80;33.07;97404.28;5031565;28;20041;-42
2023/10/13 10:00:57;;;;;;;5.85;3.55;;;22.70;37.20;;;23.85;32.76;97408.97;5032015;28;20042;-44
2023/10/13 10:06:03;;;;;;;4.85;3.28;;;22.90;37.40;;;23.96;32.66;97399.84;5031423;28;20127;-42
2023/10/13 10:08:34;;;;;;;6.07;3.80;;;23.00;37.20;;;24.06;32.78;97396.44;5031911;28;20049;-44
2023/10/13 10:11:40;;;;;;;8.43;4.13;;;23.00;37.10;;;24.10;32.50;97386.72;5032152;28;20037;-47
2023/10/13 10:14:17;;;;;;;6.10;3.25;;;23.10;35.60;;;24.22;32.62;97398.25;5024196;28;20041;-44
2023/10/13 10:17:09;;;;;;;7.80;3.50;;;23.20;36.80;;;24.24;32.15;97390.66;5031083;28;20042;-45
2023/10/13 10:19:58;;;;;;;8.30;4.22;;;23.20;35.40;;;24.29;31.74;97389.88;5031121;28;20053;-43
2023/10/13 10:22:33;;;;;;;5.05;3.10;;;23.30;34.60;;;24.31;31.50;97383.13;5032250;28;20505;-46
2023/10/13 10:25:25;;;;;;;7.53;3.92;;;23.40;35.60;;;24.36;31.64;97388.59;5031550;28;20091;-42
2023/10/13 10:27:57;;;;;;;6.05;3.55;;;23.40;36.00;;;24.41;31.47;97381.56;5031066;28;20054;-43
2023/10/13 10:30:27;;;;;;;5.72;4.00;;;23.40;35.20;;;24.47;31.48;97380.56;5030340;28;20046;-44
2023/10/13 10:32:59;;;;;;;6.65;3.42;;;23.40;35.90;;;24.50;31.16;97380.84;5031138;28;20041;-45
2023/10/13 10:35:32;;;;;;;6.83;3.97;;;23.50;35.10;;;24.52;30.82;97375.19;5030789;28;20045;-42
2023/10/13 10:40:58;;;;;;;6.45;3.20;;;23.60;34.00;;;24.63;30.71;97368.75;5031255;28;20050;-42
2023/10/13 10:43:43;;;;;;;5.18;3.17;;;23.60;34.30;;;24.71;30.80;97365.56;5031090;28;20049;-42
2023/10/13 10:46:17;;;;;;;5.47;3.20;;;23.70;34.50;;;24.74;30.54;97356.09;5023851;28;20038;-42
2023/10/13 10:48:45;;;;;;;6.65;3.53;;;23.90;34.30;;;24.80;30.41;97357.75;5030735;28;20048;-42
2023/10/13 10:53:46;;;;;;;6.53;3.10;;;23.90;34.30;;;24.91;30.63;97354.03;5030723;28;20052;-41
2023/10/13 10:56:25;;;;;;;6.65;3.03;;;24.00;34.20;;;24.98;30.29;97350.28;5030849;28;20524;-45
2023/10/13 10:58:59;;;;;;;7.00;3.90;;;24.10;34.20;;;24.99;30.06;97344.56;5030583;28;20046;-44
2023/10/13 11:01:46;;;;;;;5.22;3.00;;;24.10;33.20;;;25.05;30.40;97345.44;5029858;28;20056;-42
2023/10/13 11:04:18;;;;;;;5.88;3.28;;;24.10;34.50;;;25.12;29.65;97349.53;5023958;28;20050;-44
2023/10/13 11:06:54;;;;;;;6.93;3.45;;;24.20;33.50;;;25.19;29.81;97346.59;5029982;28;20365;-43
2023/10/13 11:09:32;;;;;;;5.65;2.72;;;24.20;32.60;;;25.26;29.68;97349.94;5030429;28;20057;-41
2023/10/13 11:12:06;;;;;;;8.20;4.40;;;24.30;33.00;;;25.31;29.06;97328.16;5030465;28;20049;-42
2023/10/13 11:14:34;;;;;;;7.25;3.42;;;24.40;31.70;;;25.39;28.98;97323.31;5030915;28;20436;-41
2023/10/13 11:17:04;;;;;;;5.80;3.35;;;24.40;32.30;;;25.42;29.17;97320.06;5030232;28;20049;-43
2023/10/13 11:19:43;;;;;;;5.95;3.22;;;24.50;32.20;;;25.48;28.75;97325.28;5029540;28;20216;-43
2023/10/13 11:22:29;;;;;;;5.55;3.00;;;24.70;30.70;;;25.59;28.43;97317.13;5021903;28;20037;-43
2023/10/13 11:24:59;;;;;;;5.30;3.40;;;24.70;31.70;;;25.61;28.23;97310.34;5030384;28;20049;-42
2023/10/13 11:30:19;;;;;;;7.80;3.72;;;24.80;30.20;;;25.69;28.11;97306.28;5030037;28;20049;-44
2023/10/13 11:33:00;;;;;;;6.82;3.22;;;24.90;30.50;;;25.74;27.98;97306.28;5037197;28;20045;-42
2023/10/13 11:35:48;;;;;;;6.65;3.90;;;25.00;29.20;;;25.80;27.69;97307.94;5037058;28;20436;-42
2023/10/13 11:38:25;;;;;;;9.55;3.17;;;25.00;30.10;;;25.84;27.20;97306.34;5036718;28;20046;-44
2023/10/13 11:51:45;;;;;;;5.18;3.60;;;25.20;29.60;;;26.12;26.64;97293.34;5037037;28;20053;-41
2023/10/13 11:54:22;;;;;;;7.57;3.33;;;25.30;29.50;;;26.20;26.67;97286.53;5029164;28;20063;-43
2023/10/13 11:56:51;;;;;;;11.88;4.40;;;25.30;29.20;;;26.24;26.43;97285.72;5036939;28;20050;-42
2023/10/13 11:59:19;;;;;;;4.97;3.22;;;25.40;29.10;;;26.30;26.28;97278.34;5036801;28;20050;-40
2023/10/13 12:07:45;;;;;;;6.70;3.45;;;25.60;29.00;;;26.51;26.24;97273.72;5036800;28;20053;-44
2023/10/13 12:10:20;;;;;;;8.13;3.63;;;25.60;28.80;;;26.60;25.52;97266.66;5029274;28;20053;-42
2023/10/13 12:12:53;;;;;;;4.95;2.80;;;25.70;28.60;;;26.68;25.83;97260.66;5036610;28;20052;-43
2023/10/13 12:15:36;;;;;;;5.55;3.10;;;25.70;28.80;;;26.79;25.66;97255.16;5036982;28;20049;-46
2023/10/13 12:18:05;;;;;;;6.82;3.42;;;25.90;28.30;;;26.84;24.96;97258.72;5036637;28;20049;-42
2023/10/13 12:20:32;;;;;;;5.72;3.65;;;26.10;28.10;;;26.85;25.01;97248.59;5035975;28;20053;-46
2023/10/13 12:23:15;;;;;;;4.85;2.95;;;26.20;27.80;;;26.94;25.29;97246.13;5036709;28;20052;-44
2023/10/13 12:26:00;;;;;;;6.93;3.78;;;26.30;27.80;;;27.02;24.92;97235.44;5036537;28;20044;-43
2023/10/13 12:28:28;;;;;;;7.00;3.67;;;26.30;27.70;;;27.13;24.92;97230.78;5030529;28;20059;-43
2023/10/13 12:31:03;;;;;;;5.25;3.15;;;26.30;27.80;;;27.20;24.97;97233.22;5036646;28;20046;-44
2023/10/13 12:33:37;;;;;;;6.72;3.42;;;26.30;27.90;;;27.16;24.30;97227.50;5037126;28;20045;-45
2023/10/13 12:36:30;;;;;;;4.88;3.55;;;26.30;27.70;;;27.14;24.44;97235.13;5036295;28;20045;-44
2023/10/13 12:50:14;;;;;;;4.78;3.47;;;26.80;26.70;;;27.63;24.08;97218.03;5033398;28;20046;-43
2023/10/13 12:52:45;;;;;;;5.20;3.08;;;27.00;26.90;;;27.75;23.62;97211.41;5033400;28;20072;-47
2023/10/13 12:55:14;;;;;;;4.80;3.33;;;27.20;26.90;;;27.88;24.11;97208.88;5033236;28;20050;-46
2023/10/13 12:57:45;;;;;;;4.47;2.92;;;27.20;27.80;;;27.98;23.59;97204.44;5031474;28;20500;-46
2023/10/13 13:00:24;;;;;;;10.13;4.85;;;27.30;26.10;;;28.05;23.49;97197.56;5033027;28;20049;-45
2023/10/13 13:02:55;;;;;;;6.25;4.60;;;27.40;26.70;;;28.15;23.46;97182.13;5033296;28;20072;-43
2023/10/13 13:05:28;;;;;;;7.68;4.60;;;27.50;26.50;;;28.26;23.40;97180.94;5032926;28;20056;-45
2023/10/13 13:07:57;;;;;;;3.70;2.80;;;27.50;26.50;;;28.36;23.29;97193.72;5032656;28;20041;-43
2023/10/13 13:10:48;;;;;;;6.63;4.00;;;27.60;26.30;;;28.42;22.71;97187.09;5033057;28;20052;-43
2023/10/13 13:13:16;;;;;;;4.75;3.72;;;27.70;25.60;;;28.46;22.97;97183.50;5032428;28;20463;-44
2023/10/13 13:15:46;;;;;;;6.05;2.97;;;27.80;25.90;;;28.51;22.71;97182.66;5032806;28;20477;-43
2023/10/13 13:18:13;;;;;;;5.60;3.30;;;27.70;25.70;;;28.54;22.39;97168.41;5032425;28;20405;-44
2023/10/13 13:20:52;;;;;;;4.55;3.50;;;27.80;25.50;;;28.61;22.27;97170.81;5032117;28;20053;-44
2023/10/13 13:23:31;;;;;;;5.82;3.17;;;27.80;25.60;;;28.68;22.12;97176.75;5025143;28;20497;-44
2023/10/13 13:25:58;;;;;;;5.88;3.50;;;27.90;24.70;;;28.70;21.80;97171.00;5032413;28;20048;-47
2023/10/13 13:28:28;;;;;;;4.55;3.38;;;28.00;25.30;;;28.72;21.96;97172.34;5032371;28;20045;-45
2023/10/13 13:30:57;;;;;;;5.78;4.13;;;28.10;25.10;;;28.70;21.56;97162.78;5032549;28;20037;-43
2023/10/13 13:33:26;;;;;;;4.65;3.80;;;28.20;24.50;;;28.79;21.66;97152.81;5032337;28;20034;-44
2023/10/13 13:35:54;;;;;;;5.25;3.60;;;28.30;24.40;;;28.84;21.82;97147.28;5032802;28;20047;-42
2023/10/13 13:38:22;;;;;;;5.03;3.95;;;28.30;24.70;;;28.98;21.80;97144.63;5024250;28;20045;-44
2023/10/13 13:40:53;;;;;;;7.07;3.15;;;28.40;24.90;;;29.04;21.53;97135.25;5031470;28;20420;-43
2023/10/13 13:43:37;;;;;;;6.45;3.90;;;28.40;24.70;;;29.13;21.60;97138.19;5032560;28;20048;-47
2023/10/13 13:46:09;;;;;;;;;;;28.40;24.70;;;29.11;21.60;97132.97;5032722;28;20056;-47
2023/10/13 13:48:38;;;;;;;7.82;4.05;;;28.30;23.70;;;29.14;21.26;97121.47;5032120;28;20415;-43
2023/10/13 13:51:14;;;;;;;6.53;3.78;;;28.30;24.40;;;29.06;21.16;97124.81;5032119;28;20116;-44
2023/10/13 13:53:45;;;;;;;5.95;3.55;;;28.40;24.10;;;29.08;21.07;97117.13;5032600;28;20412;-42
2023/10/13 13:56:18;;;;;;;5.85;3.47;;;28.40;24.20;;;29.11;20.86;97115.72;5030817;28;20515;-43
2023/10/13 13:58:49;;;;;;;5.55;3.58;;;28.50;24.00;;;29.15;21.04;97105.84;5032544;28;20417;-43
2023/10/13 14:01:28;;;;;;;6.75;3.92;;;28.40;24.20;;;29.19;20.81;97107.69;5032499;28;20045;-46
2023/10/13 14:04:02;;;;;;;8.40;3.95;;;28.50;24.30;;;29.22;21.12;97101.63;5032687;28;20440;-44
2023/10/13 14:06:30;;;;;;;10.00;4.15;;;28.50;24.30;;;29.26;20.77;97104.59;5024439;28;20046;-43
2023/10/13 14:09:02;;;;;;;5.10;3.03;;;28.50;23.90;;;29.32;20.83;97099.84;5046690;28;20404;-44